Time;durP1;ratioP1;P1;durP2;ratioP2;P2;SDS_P1;SDS_P2;PMS_P1;PMS_P2;Temp;Humidity;BMP_temperature;BMP_pressure;BME280_temperature;BME280_humidity;BME280_pressure;Samples;Min_cycle;Max_cycle;Signal;HPM_P1;HPM_P2
2022/01/03 00:01:28;;;;;;;4.65;1.40;;;;;;;9.93;77.65;100668.09;5018919;28;20774;-69
2022/01/03 00:03:55;;;;;;;3.58;1.40;;;;;;;9.96;77.64;100670.25;5021920;28;20021;-69
2022/01/03 00:06:21;;;;;;;3.47;1.17;;;;;;;9.90;77.83;100665.91;5025728;28;20021;-69
2022/01/03 00:08:47;;;;;;;4.60;1.40;;;;;;;9.89;78.24;100656.25;5017201;28;20029;-69
2022/01/03 00:11:15;;;;;;;5.25;1.10;;;;;;;9.88;78.27;100651.97;5021426;28;20029;-69
2022/01/03 00:13:43;;;;;;;7.45;1.13;;;;;;;9.86;78.26;100654.03;5022265;28;20036;-69
2022/01/03 00:16:09;;;;;;;3.08;1.30;;;;;;;9.85;78.33;100649.75;5021386;28;20033;-69
2022/01/03 00:18:34;;;;;;;2.42;1.00;;;;;;;9.84;78.62;100650.81;5022091;28;20095;-69
2022/01/03 00:21:01;;;;;;;3.95;1.27;;;;;;;9.85;78.32;100648.94;5030055;28;20123;-69
2022/01/03 00:23:32;;;;;;;4.45;1.50;;;;;;;9.82;78.55;100644.91;5002065;28;20067;-69
2022/01/03 00:26:01;;;;;;;5.82;1.50;;;;;;;9.77;78.90;100633.31;5013136;28;20439;-69
2022/01/03 00:28:34;;;;;;;5.15;1.38;;;;;;;9.73;78.98;100634.88;5006965;28;20056;-69
2022/01/03 00:31:02;;;;;;;2.03;1.27;;;;;;;9.72;79.12;100639.41;5021588;28;20060;-69
2022/01/03 00:33:28;;;;;;;2.47;1.48;;;;;;;9.72;79.03;100630.56;5002726;28;20083;-69
2022/01/03 00:35:59;;;;;;;5.35;1.50;;;;;;;9.71;79.37;100623.59;5024924;28;20025;-69
2022/01/03 00:38:27;;;;;;;3.60;1.20;;;;;;;9.68;79.43;100619.53;5019605;28;20657;-69
2022/01/03 00:40:54;;;;;;;3.35;1.55;;;;;;;9.70;79.58;100617.44;5022979;28;20105;-69
2022/01/03 00:43:20;;;;;;;3.58;1.88;;;;;;;9.70;79.32;100630.81;5023464;28;20040;-69
2022/01/03 00:45:45;;;;;;;2.95;1.55;;;;;;;9.69;79.26;100626.50;5008638;28;20104;-69
2022/01/03 00:48:13;;;;;;;4.78;1.63;;;;;;;9.64;79.47;100623.75;5026754;28;20033;-69
2022/01/03 00:50:39;;;;;;;2.05;1.15;;;;;;;9.63;79.99;100616.78;5019447;28;20026;-69
2022/01/03 00:53:06;;;;;;;5.32;1.38;;;;;;;9.63;79.86;100611.44;5023705;28;20543;-69
2022/01/03 00:55:32;;;;;;;3.65;1.38;;;;;;;9.60;79.78;100618.09;5020973;28;20040;-69
2022/01/03 00:58:09;;;;;;;4.20;1.73;;;;;;;9.55;79.96;100614.53;5004734;28;20045;-69
2022/01/03 01:00:41;;;;;;;2.95;1.13;;;;;;;9.51;80.02;100616.06;5024444;28;20099;-69
2022/01/03 01:03:15;;;;;;;3.53;1.25;;;;;;;9.47;79.95;100615.75;5023083;28;20030;-69
2022/01/03 01:05:48;;;;;;;5.15;1.42;;;;;;;9.43;80.36;100619.16;5023251;28;20021;-69
2022/01/03 01:08:18;;;;;;;4.72;1.50;;;;;;;9.44;80.29;100607.41;5022832;28;20026;-69
2022/01/03 01:10:47;;;;;;;4.53;1.10;;;;;;;9.37;80.32;100602.22;5018847;28;20104;-69
2022/01/03 01:13:14;;;;;;;3.20;1.30;;;;;;;9.42;80.76;100598.81;5013961;28;20029;-69
2022/01/03 01:15:41;;;;;;;4.25;1.40;;;;;;;9.41;80.47;100597.19;5023787;28;20551;-69
2022/01/03 01:18:07;;;;;;;3.03;1.52;;;;;;;9.39;80.89;100584.88;5018142;28;20547;-69
2022/01/03 01:20:35;;;;;;;3.00;1.20;;;;;;;9.42;80.72;100580.91;5005265;28;20052;-69
2022/01/03 01:23:04;;;;;;;2.92;1.38;;;;;;;9.41;80.69;100575.81;5022601;28;20695;-69
2022/01/03 01:28:08;;;;;;;3.33;1.20;;;;;;;9.35;80.84;100575.72;5020429;28;21127;-69
2022/01/03 01:30:34;;;;;;;2.72;1.23;;;;;;;9.31;81.15;100560.41;5022199;28;20121;-69
2022/01/03 01:33:12;;;;;;;2.40;1.45;;;;;;;9.29;81.18;100555.31;5018553;28;20140;-69
2022/01/03 01:35:46;;;;;;;4.57;1.70;;;;;;;9.35;81.03;100545.50;5024522;28;20025;-69
2022/01/03 01:38:15;;;;;;;5.70;1.55;;;;;;;9.33;81.07;100543.06;5021595;28;20040;-69
2022/01/03 01:40:50;;;;;;;2.15;1.40;;;;;;;9.29;81.16;100531.22;5022787;28;20037;-69
2022/01/03 01:43:42;;;;;;;7.40;1.90;;;;;;;9.24;81.46;100531.16;5003091;28;20033;-69
2022/01/03 01:46:12;;;;;;;6.15;1.60;;;;;;;9.33;81.46;100526.19;5026407;28;20562;-69
2022/01/03 01:48:40;;;;;;;3.47;1.30;;;;;;;9.34;81.41;100534.00;5026535;28;20460;-69
2022/01/03 01:51:08;;;;;;;2.95;1.60;;;;;;;9.28;81.43;100537.63;5016313;28;20034;-69
2022/01/03 01:53:50;;;;;;;3.58;1.70;;;;;;;9.22;81.68;100530.59;5024297;28;20036;-69
2022/01/03 01:56:19;;;;;;;3.50;1.48;;;;;;;9.25;81.94;100524.75;5024832;28;20124;-69
2022/01/03 01:58:58;;;;;;;6.15;2.33;;;;;;;9.26;81.92;100521.03;5022398;28;20036;-69
2022/01/03 02:01:40;;;;;;;2.55;1.65;;;;;;;9.25;81.87;100519.41;5005009;28;20017;-69
2022/01/03 02:04:41;;;;;;;5.05;1.90;;;;;;;9.26;81.82;100505.00;5005524;28;20510;-69
2022/01/03 02:07:25;;;;;;;4.25;2.35;;;;;;;9.24;81.65;100493.75;5024771;28;20122;-69
2022/01/03 02:10:08;;;;;;;10.53;3.57;;;;;;;9.23;81.78;100502.81;5000796;28;20654;-69
2022/01/03 02:12:40;;;;;;;4.65;2.10;;;;;;;9.19;81.86;100493.69;5020251;28;20028;-69
2022/01/03 02:15:11;;;;;;;3.85;2.20;;;;;;;9.17;81.86;100490.44;5023724;28;20032;-69
2022/01/03 02:17:37;;;;;;;5.03;2.60;;;;;;;9.18;82.34;100481.38;5026310;28;20552;-69
2022/01/03 02:20:08;;;;;;;4.68;2.08;;;;;;;9.17;82.30;100477.06;5022565;28;20416;-69
2022/01/03 02:22:37;;;;;;;3.58;2.22;;;;;;;9.12;82.47;100476.97;5022719;28;20084;-69
2022/01/03 02:25:03;;;;;;;4.60;2.58;;;;;;;9.12;82.57;100486.88;5028067;28;20439;-69
2022/01/03 02:27:30;;;;;;;5.85;2.88;;;;;;;9.10;83.07;100484.44;5025136;28;20580;-69
2022/01/03 02:29:56;;;;;;;7.78;2.83;;;;;;;9.05;83.40;100473.69;5025820;28;20040;-69
2022/01/03 02:32:21;;;;;;;7.95;4.05;;;;;;;9.04;83.58;100472.06;5018369;28;20048;-69
2022/01/03 02:34:47;;;;;;;7.43;3.80;;;;;;;8.97;84.53;100469.53;5028509;28;20048;-69
2022/01/03 02:37:13;;;;;;;13.60;3.33;;;;;;;9.01;84.70;100468.03;5025283;28;20029;-69
2022/01/03 02:39:39;;;;;;;4.30;3.17;;;;;;;8.91;86.00;100467.84;5026171;28;20057;-69
2022/01/03 02:42:04;;;;;;;5.57;3.55;;;;;;;8.87;86.96;100473.94;5020551;28;20036;-69
2022/01/03 02:44:30;;;;;;;3.92;3.42;;;;;;;8.89;87.01;100469.16;5023082;28;20118;-69
2022/01/03 02:46:55;;;;;;;6.95;3.63;;;;;;;8.89;87.15;100469.97;5022380;28;20026;-69
2022/01/03 02:49:21;;;;;;;5.30;2.97;;;;;;;8.90;86.79;100460.06;5021512;28;20036;-69
2022/01/03 02:51:47;;;;;;;7.90;3.78;;;;;;;8.90;86.86;100457.41;5022192;28;20120;-69
2022/01/03 02:54:14;;;;;;;7.07;3.05;;;;;;;8.88;87.49;100454.19;5020284;28;20042;-69
2022/01/03 02:56:42;;;;;;;8.73;3.78;;;;;;;8.90;87.53;100446.72;5024540;28;20025;-69
2022/01/03 02:59:15;;;;;;;7.50;3.78;;;;;;;8.88;87.40;100456.84;5023024;28;20033;-69
2022/01/03 03:01:46;;;;;;;5.25;3.55;;;;;;;8.90;87.56;100441.38;5025251;28;20021;-69
2022/01/03 03:04:12;;;;;;;4.55;3.33;;;;;;;8.91;87.91;100441.13;5021774;28;20028;-69
2022/01/03 03:06:38;;;;;;;7.15;3.42;;;;;;;8.92;87.98;100439.28;5012410;28;20039;-69
2022/01/03 03:09:05;;;;;;;9.20;3.90;;;;;;;8.92;88.23;100441.94;5028798;28;20037;-69
2022/01/03 03:11:35;;;;;;;5.95;3.20;;;;;;;8.90;88.24;100436.84;5023691;28;20042;-69
2022/01/03 03:14:01;;;;;;;5.75;3.88;;;;;;;8.92;88.49;100433.94;5026033;28;20528;-69
2022/01/03 03:16:27;;;;;;;5.70;3.40;;;;;;;8.91;88.85;100426.97;5023215;28;20037;-69
2022/01/03 03:18:53;;;;;;;6.53;3.70;;;;;;;8.92;88.67;100417.91;5025345;28;20108;-69
2022/01/03 03:21:19;;;;;;;6.13;4.07;;;;;;;8.90;88.74;100410.13;5023527;28;20179;-69
2022/01/03 03:23:44;;;;;;;8.50;3.55;;;;;;;8.92;88.79;100413.34;5025452;28;20025;-69
2022/01/03 03:26:10;;;;;;;4.88;3.50;;;;;;;8.91;89.14;100398.38;5026799;28;20025;-69
2022/01/03 03:28:36;;;;;;;5.20;3.10;;;;;;;8.93;89.02;100398.13;5025694;28;20029;-69
2022/01/03 03:31:03;;;;;;;7.93;3.60;;;;;;;8.91;89.11;100389.56;5024717;28;20040;-69
2022/01/03 03:33:29;;;;;;;9.23;3.63;;;;;;;8.88;90.35;100387.38;5000245;28;20034;-69
2022/01/03 03:35:56;;;;;;;7.15;3.97;;;;;;;8.83;90.61;100382.78;5024018;28;20056;-69
2022/01/03 03:38:28;;;;;;;6.95;3.65;;;;;;;8.81;90.66;100378.75;5023468;28;20028;-69
2022/01/03 03:40:58;;;;;;;4.47;3.90;;;;;;;8.79;90.90;100381.63;5007109;28;20029;-69
2022/01/03 03:43:23;;;;;;;8.32;4.28;;;;;;;8.83;91.17;100379.31;5024377;28;20060;-69
2022/01/03 03:45:49;;;;;;;6.10;3.90;;;;;;;8.83;91.37;100371.28;5025831;28;20549;-69
2022/01/03 03:48:16;;;;;;;4.80;3.75;;;;;;;8.82;91.36;100375.03;5026072;28;20393;-69
2022/01/03 03:50:41;;;;;;;5.75;4.07;;;;;;;8.82;91.61;100364.34;5024029;28;20501;-69
2022/01/03 03:53:07;;;;;;;6.65;3.97;;;;;;;8.83;91.47;100365.94;5021598;28;20040;-69
2022/01/03 03:55:33;;;;;;;6.88;4.57;;;;;;;8.83;91.71;100365.94;5020073;28;20060;-69
2022/01/03 03:58:00;;;;;;;6.80;4.57;;;;;;;8.85;91.43;100356.63;5022951;28;20479;-69
2022/01/03 04:00:26;;;;;;;8.10;4.15;;;;;;;8.85;91.64;100361.16;5023921;28;20029;-69
2022/01/03 04:02:51;;;;;;;4.47;3.47;;;;;;;8.84;91.77;100359.56;5025181;28;20037;-69
2022/01/03 04:05:17;;;;;;;7.45;3.67;;;;;;;8.86;91.62;100349.41;5025058;28;20928;-69
2022/01/03 04:07:42;;;;;;;5.50;3.67;;;;;;;8.79;92.86;100354.91;5019015;28;20112;-69
2022/01/03 04:10:10;;;;;;;3.92;2.63;;;;;;;8.74;93.49;100353.00;5023299;28;20128;-69
2022/01/03 04:12:36;;;;;;;5.70;3.88;;;;;;;8.69;94.33;100352.13;5026046;28;20108;-69
2022/01/03 04:15:04;;;;;;;4.45;3.03;;;;;;;8.75;93.39;100349.25;5022766;28;20030;-69
2022/01/03 04:17:30;;;;;;;6.05;2.70;;;;;;;8.67;94.17;100343.53;5023569;28;20033;-69
2022/01/03 04:19:55;;;;;;;3.78;2.40;;;;;;;8.66;94.21;100350.75;5023801;28;20053;-69
2022/01/03 04:22:21;;;;;;;5.63;2.25;;;;;;;8.66;94.40;100348.06;5002929;28;20030;-69
2022/01/03 04:24:46;;;;;;;2.95;1.98;;;;;;;8.72;93.61;100333.72;5016071;28;20120;-69
2022/01/03 04:27:12;;;;;;;3.40;2.10;;;;;;;8.78;93.12;100335.41;5018388;28;20104;-69
2022/01/03 04:29:37;;;;;;;4.68;2.30;;;;;;;8.82;92.43;100329.59;5026066;28;20154;-69
2022/01/03 04:32:03;;;;;;;3.90;1.92;;;;;;;8.84;92.27;100328.31;5023044;28;20029;-69
2022/01/03 04:34:30;;;;;;;4.85;2.25;;;;;;;8.81;92.79;100330.66;5027122;28;20055;-69
2022/01/03 04:36:55;;;;;;;4.63;2.28;;;;;;;8.81;92.51;100331.47;5025835;28;20409;-69
2022/01/03 04:39:21;;;;;;;2.45;1.75;;;;;;;8.83;92.53;100331.22;5020988;28;20031;-69
2022/01/03 04:41:47;;;;;;;4.72;1.90;;;;;;;8.79;92.57;100330.88;5020651;28;20026;-69
2022/01/03 04:44:12;;;;;;;3.30;1.50;;;;;;;8.70;93.34;100333.19;5022733;28;20489;-69
2022/01/03 04:46:38;;;;;;;2.88;1.20;;;;;;;8.66;93.88;100337.41;5019724;28;20045;-69
2022/01/03 04:49:06;;;;;;;2.25;1.50;;;;;;;8.61;94.69;100341.84;5019934;28;20033;-69
2022/01/03 04:51:31;;;;;;;2.05;1.73;;;;;;;8.64;94.39;100331.50;5022652;28;20042;-69
2022/01/03 04:53:57;;;;;;;2.92;1.80;;;;;;;8.70;94.03;100335.84;5009054;28;20044;-69
2022/01/03 04:56:22;;;;;;;3.20;2.15;;;;;;;8.75;93.22;100333.25;5022093;28;20577;-69
2022/01/03 04:58:48;;;;;;;3.25;2.15;;;;;;;8.70;94.52;100329.69;5019127;28;20561;-69
2022/01/03 05:01:14;;;;;;;2.75;2.22;;;;;;;8.75;93.82;100322.56;5006507;28;20604;-69
2022/01/03 05:03:39;;;;;;;3.00;2.13;;;;;;;8.79;93.44;100317.53;5027879;28;20045;-69
2022/01/03 05:06:05;;;;;;;3.22;2.33;;;;;;;8.87;93.11;100324.31;5006659;28;20083;-69
2022/01/03 05:08:32;;;;;;;3.83;2.30;;;;;;;8.90;92.88;100315.81;5024076;28;20093;-69
2022/01/03 05:11:02;;;;;;;4.32;2.13;;;;;;;8.86;92.80;100314.69;5010179;28;20120;-69
2022/01/03 05:13:31;;;;;;;2.13;1.60;;;;;;;8.85;92.44;100316.56;5022671;28;20036;-69
2022/01/03 05:15:58;;;;;;;2.38;2.00;;;;;;;8.62;92.97;100330.94;5025125;28;20096;-69
2022/01/03 05:18:24;;;;;;;1.83;1.48;;;;;;;8.55;93.25;100316.94;5024346;28;20079;-69
2022/01/03 05:20:50;;;;;;;3.65;1.60;;;;;;;8.49;93.88;100323.25;5026209;28;20604;-69
2022/01/03 05:23:16;;;;;;;2.40;1.48;;;;;;;8.65;92.90;100333.09;5024152;28;20056;-69
2022/01/03 05:25:42;;;;;;;2.22;1.58;;;;;;;8.68;92.35;100324.59;5025077;28;20131;-69
2022/01/03 05:28:07;;;;;;;2.80;1.58;;;;;;;8.67;92.97;100323.00;5025155;28;20108;-69
2022/01/03 05:30:33;;;;;;;3.55;1.60;;;;;;;8.70;92.65;100322.50;5025243;28;20029;-69
2022/01/03 05:32:59;;;;;;;3.35;1.48;;;;;;;8.62;93.01;100322.13;5025198;28;20026;-69
2022/01/03 05:35:24;;;;;;;1.45;1.35;;;;;;;8.67;92.09;100328.31;5022956;28;20034;-71
2022/01/03 05:37:50;;;;;;;2.80;1.58;;;;;;;8.62;92.46;100330.94;5027199;28;20036;-69
2022/01/03 05:40:15;;;;;;;2.20;1.42;;;;;;;8.62;92.65;100328.25;5023644;28;20033;-70
2022/01/03 05:42:42;;;;;;;1.92;1.50;;;;;;;8.68;92.33;100329.13;5029601;28;20025;-70
2022/01/03 05:45:08;;;;;;;3.75;2.17;;;;;;;8.64;93.28;100331.50;5021981;28;20505;-70
2022/01/03 05:47:33;;;;;;;3.05;1.20;;;;;;;8.70;92.84;100329.69;5021761;28;20125;-70
2022/01/03 05:49:59;;;;;;;2.83;1.38;;;;;;;8.59;93.84;100328.72;5030347;28;20553;-70
2022/01/03 05:52:25;;;;;;;3.60;1.67;;;;;;;8.54;94.29;100331.34;5025847;28;20108;-70
2022/01/03 05:54:52;;;;;;;1.50;1.20;;;;;;;8.45;95.69;100332.81;5026681;28;20083;-70
2022/01/03 05:57:18;;;;;;;2.55;1.10;;;;;;;8.48;95.14;100337.66;5007988;28;20079;-70
2022/01/03 05:59:43;;;;;;;1.20;1.00;;;;;;;8.45;96.14;100348.84;5024517;28;20053;-70
2022/01/03 06:02:09;;;;;;;3.22;1.35;;;;;;;8.46;95.92;100350.44;5025076;28;20025;-69
2022/01/03 06:04:53;;;;;;;1.92;1.17;;;;;;;8.44;95.65;100352.56;5024526;28;20033;-69
2022/01/03 06:07:20;;;;;;;0.70;0.70;;;;;;;8.33;96.58;100366.75;5007079;28;20036;-70
2022/01/03 06:09:46;;;;;;;1.35;0.90;;;;;;;8.36;96.99;100379.63;5026050;28;20033;-70
2022/01/03 06:12:12;;;;;;;1.00;0.90;;;;;;;8.32;97.29;100375.81;5024086;28;20029;-70
2022/01/03 06:14:38;;;;;;;2.30;1.00;;;;;;;8.31;97.69;100382.19;5023077;28;20049;-69
2022/01/03 06:17:05;;;;;;;1.20;1.10;;;;;;;8.21;98.39;100387.34;5025112;28;20022;-69
2022/01/03 06:19:34;;;;;;;1.60;0.80;;;;;;;8.24;97.96;100398.34;5028754;28;20071;-70
2022/01/03 06:22:02;;;;;;;3.15;1.10;;;;;;;8.14;98.48;100403.53;5027692;28;20025;-72
2022/01/03 06:24:27;;;;;;;2.15;0.90;;;;;;;8.09;99.00;100408.78;5026883;28;20039;-72
2022/01/03 06:26:53;;;;;;;0.80;0.80;;;;;;;8.09;98.75;100412.25;5027500;28;20018;-72
2022/01/03 06:29:19;;;;;;;1.65;0.95;;;;;;;8.07;98.64;100437.53;5026540;28;20037;-72
2022/01/03 06:31:45;;;;;;;1.60;0.93;;;;;;;8.09;98.17;100451.47;5021956;28;20052;-72
2022/01/03 06:34:11;;;;;;;1.13;0.85;;;;;;;8.12;97.46;100473.16;5021577;28;20390;-72
2022/01/03 06:36:37;;;;;;;1.60;1.00;;;;;;;8.08;97.95;100482.69;5027754;28;20034;-71
2022/01/03 06:39:05;;;;;;;1.67;0.90;;;;;;;8.11;97.29;100487.53;5027995;28;20039;-72
2022/01/03 06:41:31;;;;;;;2.30;1.00;;;;;;;8.00;97.27;100496.38;5006782;28;20029;-72
2022/01/03 06:43:56;;;;;;;2.15;0.85;;;;;;;8.01;97.64;100507.88;5001712;28;20029;-73
2022/01/03 06:46:22;;;;;;;0.95;0.85;;;;;;;7.99;97.16;100509.97;5027024;28;20509;-72
2022/01/03 06:48:49;;;;;;;2.10;0.70;;;;;;;7.98;96.96;100525.16;5029581;28;20025;-72
2022/01/03 06:51:15;;;;;;;1.02;0.80;;;;;;;7.95;96.99;100525.66;5028845;28;20031;-72
2022/01/03 06:53:42;;;;;;;1.30;0.80;;;;;;;7.80;97.41;100541.31;5023007;28;20029;-71
2022/01/03 06:56:08;;;;;;;0.77;0.70;;;;;;;7.77;97.66;100547.13;5028876;28;20083;-73
2022/01/03 06:58:35;;;;;;;0.73;0.57;;;;;;;7.82;97.15;100553.38;5027726;28;20505;-72
2022/01/03 07:01:00;;;;;;;1.05;0.60;;;;;;;7.72;97.39;100558.50;5025081;28;20029;-73
2022/01/03 07:03:26;;;;;;;0.82;0.60;;;;;;;7.63;97.37;100554.56;5008301;28;20031;-72
2022/01/03 07:05:51;;;;;;;0.98;0.50;;;;;;;7.69;97.44;100574.94;5012100;28;20017;-72
2022/01/03 07:08:20;;;;;;;1.55;0.50;;;;;;;7.64;97.38;100577.50;5006095;28;20835;-72
2022/01/03 07:10:45;;;;;;;0.60;0.60;;;;;;;7.73;96.85;100565.47;5001978;28;20176;-72
2022/01/03 07:13:11;;;;;;;1.10;0.60;;;;;;;7.79;96.26;100561.03;5004882;28;20552;-72
2022/01/03 07:21:04;;;;;;;2.15;0.50;;;;;;;7.56;96.43;100596.53;5028668;28;20116;-70
2022/01/03 07:23:30;;;;;;;0.60;0.32;;;;;;;7.42;96.60;100598.63;5026127;28;20112;-70
2022/01/03 07:25:55;;;;;;;3.15;0.43;;;;;;;7.39;97.24;100612.41;5027269;28;20024;-71
2022/01/03 07:28:21;;;;;;;0.60;0.45;;;;;;;7.36;97.78;100615.53;5015661;28;20476;-69
2022/01/03 07:30:46;;;;;;;0.40;0.40;;;;;;;7.36;97.76;100612.03;5026200;28;20036;-71
2022/01/03 07:33:12;;;;;;;1.77;0.60;;;;;;;7.39;98.17;100620.41;5011285;28;20086;-72
2022/01/03 07:35:37;;;;;;;0.98;0.50;;;;;;;7.50;97.69;100622.25;5010510;28;20393;-71
2022/01/03 07:38:04;;;;;;;1.15;0.50;;;;;;;7.50;98.00;100630.25;5026943;28;20037;-71
2022/01/03 07:40:31;;;;;;;0.50;0.50;;;;;;;7.46;97.69;100634.41;5027125;28;20044;-70
2022/01/03 07:42:57;;;;;;;1.10;0.40;;;;;;;7.46;97.54;100630.94;5026197;28;20032;-71
2022/01/03 07:45:23;;;;;;;0.55;0.40;;;;;;;7.50;97.50;100635.59;5022665;28;20021;-71
2022/01/03 07:47:48;;;;;;;0.60;0.40;;;;;;;7.52;96.93;100638.81;5026225;28;20783;-70
2022/01/03 07:50:15;;;;;;;0.57;0.45;;;;;;;7.42;97.06;100643.94;5026334;28;20034;-72
2022/01/03 07:52:41;;;;;;;0.32;0.32;;;;;;;7.48;97.42;100647.53;5024492;28;20425;-71
2022/01/03 07:55:10;;;;;;;0.30;0.30;;;;;;;7.53;97.07;100648.44;5024422;28;20138;-71
2022/01/03 07:57:36;;;;;;;0.52;0.38;;;;;;;7.50;97.29;100648.91;5029565;28;20083;-71
2022/01/03 08:00:06;;;;;;;0.50;0.50;;;;;;;7.53;96.73;100645.78;5024041;28;20052;-71
2022/01/03 08:02:31;;;;;;;1.23;0.45;;;;;;;7.46;96.57;100645.09;5023617;28;20152;-71
2022/01/03 08:04:57;;;;;;;2.55;0.60;;;;;;;7.51;96.96;100653.19;5025496;28;20597;-71
2022/01/03 08:07:22;;;;;;;0.30;0.30;;;;;;;7.45;97.23;100646.13;5023709;28;20056;-70
2022/01/03 08:09:48;;;;;;;0.50;0.50;;;;;;;7.52;96.85;100649.50;5022391;28;20068;-71
2022/01/03 08:12:14;;;;;;;0.77;0.60;;;;;;;7.56;96.96;100645.34;5022189;28;20091;-71
2022/01/03 08:14:39;;;;;;;0.68;0.68;;;;;;;7.50;96.85;100650.75;5022661;28;20375;-71
2022/01/03 08:17:05;;;;;;;1.73;0.63;;;;;;;7.51;97.10;100650.53;5015814;28;20037;-71
2022/01/03 08:19:31;;;;;;;3.05;0.70;;;;;;;7.56;97.13;100661.34;5024823;28;20043;-71
2022/01/03 08:21:57;;;;;;;1.30;0.90;;;;;;;7.60;97.24;100660.88;5021993;28;20682;-71
2022/01/03 08:24:22;;;;;;;1.77;0.80;;;;;;;7.58;97.45;100667.25;5022342;28;20037;-71
2022/01/03 08:26:49;;;;;;;3.28;1.38;;;;;;;7.64;97.85;100667.38;5024976;28;20029;-70
2022/01/03 08:29:15;;;;;;;3.10;1.10;;;;;;;7.66;97.58;100668.75;5012911;28;20033;-71
2022/01/03 08:31:41;;;;;;;4.22;1.10;;;;;;;7.71;97.26;100670.72;5022859;28;20040;-70
2022/01/03 08:34:07;;;;;;;2.95;1.10;;;;;;;7.74;96.95;100663.09;5023372;28;20474;-71
2022/01/03 08:36:32;;;;;;;4.10;1.05;;;;;;;7.69;97.47;100665.63;5008163;28;20032;-70
2022/01/03 08:38:58;;;;;;;3.88;1.40;;;;;;;7.76;96.97;100673.53;5032936;28;20029;-70
2022/01/03 08:41:24;;;;;;;3.00;1.15;;;;;;;7.82;96.78;100676.06;5025919;28;20210;-71
2022/01/03 08:43:51;;;;;;;2.40;1.08;;;;;;;7.84;96.70;100673.19;5025092;28;20536;-70
2022/01/03 08:46:16;;;;;;;4.63;1.10;;;;;;;7.88;96.61;100667.13;5031447;28;20119;-70
2022/01/03 08:48:42;;;;;;;2.70;1.00;;;;;;;7.89;96.36;100673.28;5025793;28;20029;-71
2022/01/03 08:51:07;;;;;;;3.80;1.50;;;;;;;7.91;96.18;100663.22;5023430;28;20031;-72
2022/01/03 08:53:33;;;;;;;8.00;1.85;;;;;;;7.86;96.26;100657.75;5024015;28;20407;-70
2022/01/03 08:55:59;;;;;;;6.40;1.35;;;;;;;7.91;96.06;100670.41;5028120;28;20126;-72
2022/01/03 08:58:25;;;;;;;6.97;1.30;;;;;;;7.83;96.05;100669.69;5019745;28;20429;-71
2022/01/03 09:00:51;;;;;;;5.05;1.30;;;;;;;7.88;95.73;100669.81;5023315;28;20029;-71
2022/01/03 09:03:18;;;;;;;3.30;1.20;;;;;;;7.87;95.93;100672.69;5019541;28;20743;-70
2022/01/03 09:05:44;;;;;;;4.35;1.27;;;;;;;7.85;96.10;100680.94;5005866;28;20026;-71
2022/01/03 09:08:11;;;;;;;3.78;1.30;;;;;;;7.90;96.20;100680.28;5022341;28;20021;-71
2022/01/03 09:10:40;;;;;;;5.30;1.33;;;;;;;7.92;96.09;100678.19;5023916;28;20029;-70
2022/01/03 09:13:05;;;;;;;4.88;1.73;;;;;;;7.94;96.42;100684.09;5008469;28;20056;-70
2022/01/03 09:15:31;;;;;;;5.75;2.00;;;;;;;8.00;96.32;100675.16;5023340;28;20301;-70
2022/01/03 09:17:57;;;;;;;3.92;1.40;;;;;;;8.00;96.60;100683.16;5025565;28;20119;-72
2022/01/03 09:20:22;;;;;;;9.75;1.85;;;;;;;8.07;95.93;100686.50;5008711;28;20497;-70
2022/01/03 09:22:51;;;;;;;3.60;1.30;;;;;;;8.10;96.48;100691.41;5023919;28;20461;-70
2022/01/03 09:30:29;;;;;;;6.60;1.73;;;;;;;8.24;95.34;100688.47;5022042;28;20153;-71
2022/01/03 09:32:55;;;;;;;4.55;1.75;;;;;;;8.25;95.11;100685.56;5024628;28;20116;-71
2022/01/03 09:35:21;;;;;;;5.65;2.03;;;;;;;8.24;95.39;100683.94;5023283;28;20029;-71
2022/01/03 09:37:47;;;;;;;5.28;2.17;;;;;;;8.23;95.32;100687.66;5007540;28;20041;-72
2022/01/03 09:40:12;;;;;;;6.60;2.35;;;;;;;8.25;95.14;100690.91;5016740;28;20033;-71
2022/01/03 09:42:39;;;;;;;10.45;2.67;;;;;;;8.30;94.82;100690.22;5020633;28;20414;-70
2022/01/03 09:45:07;;;;;;;5.03;2.55;;;;;;;8.24;94.80;100689.28;5022416;28;20111;-70
2022/01/03 09:47:37;;;;;;;4.82;2.28;;;;;;;8.31;94.93;100694.50;5020200;28;20029;-70
2022/01/03 09:50:03;;;;;;;6.95;2.28;;;;;;;8.29;95.19;100689.41;5021445;28;20025;-71
2022/01/03 09:52:30;;;;;;;7.22;2.30;;;;;;;8.30;94.93;100691.03;5020977;28;20086;-70
2022/01/03 09:54:57;;;;;;;10.30;2.20;;;;;;;8.32;95.07;100694.28;5019685;28;20397;-70
2022/01/03 09:57:26;;;;;;;5.65;2.40;;;;;;;8.31;95.25;100691.84;5024393;28;20385;-71
2022/01/03 09:59:53;;;;;;;5.07;1.92;;;;;;;8.39;94.90;100697.66;5008552;28;20127;-71
2022/01/03 10:02:21;;;;;;;6.95;2.00;;;;;;;8.36;94.52;100702.66;5018055;28;20029;-71
2022/01/03 10:04:48;;;;;;;4.78;1.90;;;;;;;8.44;94.62;100691.63;5021225;28;20079;-70
2022/01/03 10:07:14;;;;;;;7.70;1.75;;;;;;;8.42;94.45;100689.16;5027336;28;20021;-71
2022/01/03 10:09:42;;;;;;;5.63;1.90;;;;;;;8.44;93.84;100691.63;5026939;28;20033;-71
2022/01/03 10:12:14;;;;;;;9.63;1.80;;;;;;;8.37;94.24;100681.06;5027750;28;20033;-71
2022/01/03 10:14:40;;;;;;;3.03;1.50;;;;;;;8.37;93.46;100685.59;5028360;28;20069;-70
2022/01/03 10:17:06;;;;;;;3.67;1.60;;;;;;;8.43;92.96;100685.44;5028262;28;20585;-70
2022/01/03 10:19:49;;;;;;;9.68;2.35;;;;;;;8.47;92.75;100683.16;5003960;28;20034;-71
2022/01/03 10:22:22;;;;;;;4.95;1.38;;;;;;;8.46;91.88;100681.53;5026331;28;20040;-70
2022/01/03 10:24:48;;;;;;;6.78;1.70;;;;;;;8.53;91.60;100692.88;5024694;28;20133;-70
2022/01/03 10:27:14;;;;;;;11.73;1.63;;;;;;;8.56;91.33;100681.72;5028310;28;20560;-71
2022/01/03 10:29:41;;;;;;;3.65;1.33;;;;;;;8.69;91.75;100684.13;5029596;28;20227;-70
2022/01/03 10:32:10;;;;;;;6.00;1.65;;;;;;;8.81;91.82;100685.97;5029014;28;20057;-71
2022/01/03 10:34:36;;;;;;;9.18;1.98;;;;;;;8.88;91.47;100673.25;5026924;28;20025;-70
2022/01/03 10:37:12;;;;;;;5.05;1.90;;;;;;;8.92;90.95;100674.41;5028613;28;20650;-70
2022/01/03 10:39:38;;;;;;;6.82;2.17;;;;;;;8.96;90.76;100680.88;5027341;28;20388;-71
2022/01/03 10:42:17;;;;;;;7.53;1.67;;;;;;;9.05;90.70;100684.81;5012032;28;20029;-70
2022/01/03 10:44:43;;;;;;;8.43;1.88;;;;;;;9.17;90.42;100680.22;5027410;28;20083;-70
2022/01/03 10:47:13;;;;;;;8.48;2.15;;;;;;;9.15;89.92;100668.94;5001329;28;20022;-71
2022/01/03 10:49:40;;;;;;;13.05;2.55;;;;;;;9.14;89.38;100677.19;5025857;28;20424;-71
2022/01/03 10:52:19;;;;;;;8.45;2.75;;;;;;;9.20;89.50;100679.75;5028209;28;20083;-70
2022/01/03 10:55:12;;;;;;;11.23;2.55;;;;;;;9.12;89.08;100681.97;5008991;28;20029;-70
2022/01/03 10:57:54;;;;;;;8.90;2.20;;;;;;;9.24;89.45;100670.19;5006805;28;20029;-70
2022/01/03 11:00:34;;;;;;;6.65;2.10;;;;;;;9.22;89.21;100680.31;5010665;28;20745;-70
2022/01/03 11:03:21;;;;;;;13.35;2.95;;;;;;;9.20;89.11;100677.06;5027979;28;20029;-71
2022/01/03 11:05:54;;;;;;;10.40;2.78;;;;;;;9.19;89.42;100679.97;5020052;28;20032;-71
2022/01/03 11:11:09;;;;;;;9.75;2.40;;;;;;;9.10;89.41;100676.88;5024452;28;20120;-70
2022/01/03 11:13:40;;;;;;;11.45;3.35;;;;;;;9.03;89.26;100676.22;5023805;28;20115;-70
2022/01/03 11:16:08;;;;;;;7.68;1.90;;;;;;;9.11;89.53;100677.69;5022645;28;20452;-70
2022/01/03 11:18:35;;;;;;;8.07;2.10;;;;;;;9.07;89.53;100672.81;5018717;28;20051;-71
2022/01/03 11:21:04;;;;;;;10.90;2.00;;;;;;;9.14;88.98;100678.00;5007628;28;20033;-70
2022/01/03 11:23:30;;;;;;;13.27;2.58;;;;;;;9.20;88.73;100671.72;5020221;28;20352;-70
2022/01/03 11:25:55;;;;;;;5.90;2.15;;;;;;;9.29;88.69;100677.47;5024291;28;20113;-70
2022/01/03 11:28:24;;;;;;;11.82;2.33;;;;;;;9.43;87.94;100665.41;5022175;28;20061;-70
2022/01/03 11:30:53;;;;;;;9.40;2.72;;;;;;;9.48;87.64;100670.03;5025702;28;20025;-71
2022/01/03 11:33:19;;;;;;;11.52;2.50;;;;;;;9.52;87.28;100660.50;5021775;28;20029;-70
2022/01/03 11:35:49;;;;;;;9.75;2.20;;;;;;;9.56;86.63;100665.09;5024955;28;20110;-71
2022/01/03 11:38:19;;;;;;;12.63;2.33;;;;;;;9.71;85.96;100663.75;5007764;28;20035;-71
2022/01/03 11:40:45;;;;;;;5.18;1.80;;;;;;;9.89;85.64;100656.25;5019161;28;20127;-71
2022/01/03 11:43:12;;;;;;;11.73;2.20;;;;;;;9.99;84.97;100664.41;5022437;28;20033;-70
2022/01/03 11:45:39;;;;;;;7.32;2.13;;;;;;;9.99;85.23;100659.06;5019591;28;20032;-71
2022/01/03 11:48:14;;;;;;;16.80;2.80;;;;;;;9.86;84.47;100664.75;5023391;28;20579;-70
2022/01/03 11:50:40;;;;;;;8.80;2.20;;;;;;;9.83;85.04;100654.53;5034646;28;20132;-71
2022/01/03 11:53:07;;;;;;;11.32;2.38;;;;;;;9.83;85.07;100651.88;5023553;28;20037;-69